Venia, Virginia
Current Conditions -  °F | °C
As of 1:15 AM on Saturday 29 Nov 2014 (Local Time) from KJFZ Reporting Station
Clear Clear  
Wind Chill: 34°   Ceiling: Unl
Heat Index: 34°   Visibility: 10mi
Dew Point: 16°   Wind: 0mph
Humidity: 48%   Direction: NA
Pressure: 30.13"   Gusts: NA
Location:  37.0328°N, 82.0042°W
Report Text: KJFZ 290615Z AUTO 00000KT 10SM CLR 01/M09 A3013 RMK AO2 T00111088
Loading
Personal Weather Stations






























Interactive Weather Map New forecast layout! Learn more

10-Day Weather Forecast

Advertisements
Track Severe Weather on mobile